sensor_id;sensor_type;location;lat;lon;timestamp;temperature;humidity
29007;DHT22;16104;48.642;9.008;2022-08-18T00:00:16;22.50;54.80
29007;DHT22;16104;48.642;9.008;2022-08-18T01:01:12;21.80;56.20
29007;DHT22;16104;48.642;9.008;2022-08-18T01:06:16;21.80;56.50
29007;DHT22;16104;48.642;9.008;2022-08-18T01:11:15;21.80;57.70
29007;DHT22;16104;48.642;9.008;2022-08-18T02:03:37;21.40;59.10
29007;DHT22;16104;48.642;9.008;2022-08-18T02:08:33;21.40;58.90
29007;DHT22;16104;48.642;9.008;2022-08-18T02:13:29;21.30;58.40
29007;DHT22;16104;48.642;9.008;2022-08-18T03:04:15;20.90;60.10
29007;DHT22;16104;48.642;9.008;2022-08-18T03:09:14;20.90;60.10
29007;DHT22;16104;48.642;9.008;2022-08-18T03:14:10;20.90;60.40
29007;DHT22;16104;48.642;9.008;2022-08-18T03:19:06;20.80;60.70
29007;DHT22;16104;48.642;9.008;2022-08-18T03:24:03;20.80;60.30
29007;DHT22;16104;48.642;9.008;2022-08-18T03:28:59;20.80;61.00
29007;DHT22;16104;48.642;9.008;2022-08-18T03:33:56;20.70;60.60
29007;DHT22;16104;48.642;9.008;2022-08-18T03:38:53;20.70;61.30
29007;DHT22;16104;48.642;9.008;2022-08-18T03:43:50;20.70;61.30
29007;DHT22;16104;48.642;9.008;2022-08-18T03:48:46;20.70;61.50
29007;DHT22;16104;48.642;9.008;2022-08-18T03:53:42;20.70;61.30
29007;DHT22;16104;48.642;9.008;2022-08-18T03:58:38;20.60;61.40
29007;DHT22;16104;48.642;9.008;2022-08-18T04:03:34;20.60;61.80
29007;DHT22;16104;48.642;9.008;2022-08-18T04:08:31;20.70;61.80
29007;DHT22;16104;48.642;9.008;2022-08-18T04:13:26;20.60;61.90
29007;DHT22;16104;48.642;9.008;2022-08-18T04:18:22;20.60;61.80
29007;DHT22;16104;48.642;9.008;2022-08-18T04:23:17;20.60;61.80
29007;DHT22;16104;48.642;9.008;2022-08-18T04:28:13;20.60;62.10
29007;DHT22;16104;48.642;9.008;2022-08-18T04:33:08;20.70;61.90
29007;DHT22;16104;48.642;9.008;2022-08-18T04:38:04;20.70;62.50
29007;DHT22;16104;48.642;9.008;2022-08-18T04:42:59;20.70;62.50
29007;DHT22;16104;48.642;9.008;2022-08-18T04:47:56;20.70;62.20
29007;DHT22;16104;48.642;9.008;2022-08-18T04:52:52;20.70;62.20
29007;DHT22;16104;48.642;9.008;2022-08-18T04:58:09;20.70;62.30
29007;DHT22;16104;48.642;9.008;2022-08-18T05:03:05;20.70;62.40
29007;DHT22;16104;48.642;9.008;2022-08-18T05:08:00;20.70;62.50
29007;DHT22;16104;48.642;9.008;2022-08-18T05:12:56;20.80;62.60
29007;DHT22;16104;48.642;9.008;2022-08-18T05:17:51;20.80;62.80
29007;DHT22;16104;48.642;9.008;2022-08-18T05:22:47;20.80;63.00
29007;DHT22;16104;48.642;9.008;2022-08-18T05:27:42;20.80;63.00
29007;DHT22;16104;48.642;9.008;2022-08-18T05:32:41;20.80;62.80
29007;DHT22;16104;48.642;9.008;2022-08-18T05:42:58;20.80;63.60
29007;DHT22;16104;48.642;9.008;2022-08-18T05:47:58;20.80;63.00
29007;DHT22;16104;48.642;9.008;2022-08-18T05:53:11;20.80;63.40
29007;DHT22;16104;48.642;9.008;2022-08-18T05:58:14;20.80;63.80
29007;DHT22;16104;48.642;9.008;2022-08-18T06:03:20;20.80;64.00
29007;DHT22;16104;48.642;9.008;2022-08-18T06:08:19;20.90;64.50
29007;DHT22;16104;48.642;9.008;2022-08-18T06:13:17;20.90;64.00
29007;DHT22;16104;48.642;9.008;2022-08-18T06:39:49;21.20;64.60
29007;DHT22;16104;48.642;9.008;2022-08-18T06:44:47;21.30;64.30
29007;DHT22;16104;48.642;9.008;2022-08-18T06:49:51;21.40;64.30
29007;DHT22;16104;48.642;9.008;2022-08-18T06:54:49;21.50;64.50
29007;DHT22;16104;48.642;9.008;2022-08-18T06:59:54;21.60;63.80
29007;DHT22;16104;48.642;9.008;2022-08-18T07:15:11;22.10;63.10
29007;DHT22;16104;48.642;9.008;2022-08-18T07:20:21;22.20;62.60
29007;DHT22;16104;48.642;9.008;2022-08-18T07:25:23;22.30;62.80
29007;DHT22;16104;48.642;9.008;2022-08-18T07:35:21;22.40;61.80
29007;DHT22;16104;48.642;9.008;2022-08-18T07:40:23;22.40;62.00
29007;DHT22;16104;48.642;9.008;2022-08-18T07:45:35;22.40;61.80
29007;DHT22;16104;48.642;9.008;2022-08-18T07:50:59;22.50;61.80
29007;DHT22;16104;48.642;9.008;2022-08-18T07:56:04;22.50;62.30
29007;DHT22;16104;48.642;9.008;2022-08-18T08:06:10;22.50;62.10
29007;DHT22;16104;48.642;9.008;2022-08-18T08:11:24;22.60;62.50
29007;DHT22;16104;48.642;9.008;2022-08-18T08:16:47;22.70;62.00
29007;DHT22;16104;48.642;9.008;2022-08-18T08:21:59;22.80;62.10
29007;DHT22;16104;48.642;9.008;2022-08-18T08:27:08;22.90;61.80
29007;DHT22;16104;48.642;9.008;2022-08-18T08:32:38;23.00;61.30
29007;DHT22;16104;48.642;9.008;2022-08-18T08:38:45;23.20;61.50
29007;DHT22;16104;48.642;9.008;2022-08-18T08:43:15;23.50;61.70
29007;DHT22;16104;48.642;9.008;2022-08-18T08:48:19;23.70;60.70
29007;DHT22;16104;48.642;9.008;2022-08-18T08:58:39;24.00;59.90
29007;DHT22;16104;48.642;9.008;2022-08-18T09:03:51;24.20;59.60
29007;DHT22;16104;48.642;9.008;2022-08-18T09:09:15;24.50;59.10
29007;DHT22;16104;48.642;9.008;2022-08-18T09:14:46;24.60;59.00
29007;DHT22;16104;48.642;9.008;2022-08-18T09:20:03;24.70;58.40
29007;DHT22;16104;48.642;9.008;2022-08-18T09:25:11;24.90;58.10
29007;DHT22;16104;48.642;9.008;2022-08-18T09:36:12;25.30;57.80
29007;DHT22;16104;48.642;9.008;2022-08-18T09:41:17;25.60;56.50
29007;DHT22;16104;48.642;9.008;2022-08-18T09:46:59;25.90;57.20
29007;DHT22;16104;48.642;9.008;2022-08-18T09:57:20;26.40;56.00
29007;DHT22;16104;48.642;9.008;2022-08-18T10:07:35;26.60;54.30
29007;DHT22;16104;48.642;9.008;2022-08-18T10:13:04;26.80;54.30
29007;DHT22;16104;48.642;9.008;2022-08-18T10:18:22;27.00;53.80
29007;DHT22;16104;48.642;9.008;2022-08-18T10:23:46;27.20;53.80
29007;DHT22;16104;48.642;9.008;2022-08-18T10:34:03;27.80;52.60
29007;DHT22;16104;48.642;9.008;2022-08-18T10:39:04;28.00;52.60
29007;DHT22;16104;48.642;9.008;2022-08-18T10:44:01;28.10;51.80
29007;DHT22;16104;48.642;9.008;2022-08-18T10:54:11;28.30;50.80
29007;DHT22;16104;48.642;9.008;2022-08-18T10:59:34;28.40;52.20
29007;DHT22;16104;48.642;9.008;2022-08-18T11:04:42;28.40;50.10
29007;DHT22;16104;48.642;9.008;2022-08-18T11:09:39;28.20;50.30
29007;DHT22;16104;48.642;9.008;2022-08-18T11:14:51;28.10;50.30
29007;DHT22;16104;48.642;9.008;2022-08-18T11:19:51;27.90;50.40
29007;DHT22;16104;48.642;9.008;2022-08-18T11:24:47;27.70;50.60
29007;DHT22;16104;48.642;9.008;2022-08-18T11:29:44;27.60;50.50
29007;DHT22;16104;48.642;9.008;2022-08-18T11:34:52;27.50;50.70
29007;DHT22;16104;48.642;9.008;2022-08-18T11:39:50;27.30;50.50
29007;DHT22;16104;48.642;9.008;2022-08-18T11:44:47;27.20;50.80
29007;DHT22;16104;48.642;9.008;2022-08-18T11:50:04;27.10;51.20
29007;DHT22;16104;48.642;9.008;2022-08-18T11:55:05;27.00;51.00
29007;DHT22;16104;48.642;9.008;2022-08-18T12:00:37;27.00;51.20
29007;DHT22;16104;48.642;9.008;2022-08-18T12:05:47;27.00;51.30
29007;DHT22;16104;48.642;9.008;2022-08-18T12:10:44;27.00;50.90
29007;DHT22;16104;48.642;9.008;2022-08-18T12:15:39;27.00;51.20
29007;DHT22;16104;48.642;9.008;2022-08-18T12:20:35;27.00;51.20
29007;DHT22;16104;48.642;9.008;2022-08-18T12:25:30;27.10;51.00
29007;DHT22;16104;48.642;9.008;2022-08-18T12:30:26;27.30;51.10
29007;DHT22;16104;48.642;9.008;2022-08-18T12:35:23;27.50;50.80
29007;DHT22;16104;48.642;9.008;2022-08-18T12:40:19;27.70;50.40
29007;DHT22;16104;48.642;9.008;2022-08-18T12:45:14;27.80;49.90
29007;DHT22;16104;48.642;9.008;2022-08-18T12:50:10;27.90;49.90
29007;DHT22;16104;48.642;9.008;2022-08-18T12:55:07;28.00;49.30
29007;DHT22;16104;48.642;9.008;2022-08-18T13:00:04;28.10;49.90
29007;DHT22;16104;48.642;9.008;2022-08-18T13:05:01;28.40;49.30
29007;DHT22;16104;48.642;9.008;2022-08-18T13:09:57;28.60;48.40
29007;DHT22;16104;48.642;9.008;2022-08-18T13:14:52;28.90;48.30
29007;DHT22;16104;48.642;9.008;2022-08-18T13:19:49;29.10;47.60
29007;DHT22;16104;48.642;9.008;2022-08-18T13:24:45;29.40;47.40
29007;DHT22;16104;48.642;9.008;2022-08-18T13:29:40;29.60;46.10
29007;DHT22;16104;48.642;9.008;2022-08-18T13:34:36;29.80;45.70
29007;DHT22;16104;48.642;9.008;2022-08-18T13:39:33;30.10;45.50
29007;DHT22;16104;48.642;9.008;2022-08-18T13:44:28;30.30;44.10
29007;DHT22;16104;48.642;9.008;2022-08-18T13:49:25;30.40;43.50
29007;DHT22;16104;48.642;9.008;2022-08-18T13:54:23;30.30;43.30
29007;DHT22;16104;48.642;9.008;2022-08-18T13:59:20;30.20;43.60
29007;DHT22;16104;48.642;9.008;2022-08-18T14:04:18;30.20;43.30
29007;DHT22;16104;48.642;9.008;2022-08-18T14:09:13;30.10;43.20
29007;DHT22;16104;48.642;9.008;2022-08-18T14:14:09;30.00;43.40
29007;DHT22;16104;48.642;9.008;2022-08-18T14:19:04;30.00;43.40
29007;DHT22;16104;48.642;9.008;2022-08-18T14:24:18;30.00;43.70
29007;DHT22;16104;48.642;9.008;2022-08-18T14:29:33;29.90;43.90
29007;DHT22;16104;48.642;9.008;2022-08-18T14:34:28;29.80;43.20
29007;DHT22;16104;48.642;9.008;2022-08-18T14:39:24;29.80;43.20
29007;DHT22;16104;48.642;9.008;2022-08-18T14:44:19;29.70;43.30
29007;DHT22;16104;48.642;9.008;2022-08-18T14:49:15;29.60;43.10
29007;DHT22;16104;48.642;9.008;2022-08-18T14:54:10;29.60;42.70
29007;DHT22;16104;48.642;9.008;2022-08-18T14:59:06;29.50;42.80
29007;DHT22;16104;48.642;9.008;2022-08-18T15:04:03;29.40;42.80
29007;DHT22;16104;48.642;9.008;2022-08-18T15:08:58;29.40;43.50
29007;DHT22;16104;48.642;9.008;2022-08-18T15:13:54;29.30;43.30
29007;DHT22;16104;48.642;9.008;2022-08-18T15:18:50;29.30;43.40
29007;DHT22;16104;48.642;9.008;2022-08-18T15:23:46;29.10;43.30
29007;DHT22;16104;48.642;9.008;2022-08-18T15:29:00;29.10;43.20
29007;DHT22;16104;48.642;9.008;2022-08-18T15:33:55;28.90;43.50
29007;DHT22;16104;48.642;9.008;2022-08-18T15:38:51;28.80;43.50
29007;DHT22;16104;48.642;9.008;2022-08-18T15:43:47;28.80;43.70
29007;DHT22;16104;48.642;9.008;2022-08-18T15:48:42;28.70;43.90
29007;DHT22;16104;48.642;9.008;2022-08-18T15:53:38;28.60;44.10
29007;DHT22;16104;48.642;9.008;2022-08-18T15:58:34;28.60;44.40
29007;DHT22;16104;48.642;9.008;2022-08-18T16:03:30;28.60;44.10
29007;DHT22;16104;48.642;9.008;2022-08-18T16:08:25;28.60;44.10
29007;DHT22;16104;48.642;9.008;2022-08-18T16:13:22;28.60;44.00
29007;DHT22;16104;48.642;9.008;2022-08-18T16:18:19;28.60;44.10
29007;DHT22;16104;48.642;9.008;2022-08-18T16:23:17;28.50;44.30
29007;DHT22;16104;48.642;9.008;2022-08-18T16:28:13;28.50;44.70
29007;DHT22;16104;48.642;9.008;2022-08-18T16:33:08;28.50;44.80
29007;DHT22;16104;48.642;9.008;2022-08-18T16:38:06;28.40;44.70
29007;DHT22;16104;48.642;9.008;2022-08-18T16:43:03;28.30;45.00
29007;DHT22;16104;48.642;9.008;2022-08-18T16:48:00;28.30;44.90
29007;DHT22;16104;48.642;9.008;2022-08-18T16:52:56;28.10;45.00
29007;DHT22;16104;48.642;9.008;2022-08-18T16:57:52;28.10;45.90
29007;DHT22;16104;48.642;9.008;2022-08-18T17:03:08;28.00;45.40
29007;DHT22;16104;48.642;9.008;2022-08-18T17:08:22;27.90;45.60
29007;DHT22;16104;48.642;9.008;2022-08-18T17:13:17;27.70;45.70
29007;DHT22;16104;48.642;9.008;2022-08-18T17:18:13;27.60;45.80
29007;DHT22;16104;48.642;9.008;2022-08-18T17:23:09;27.40;45.90
29007;DHT22;16104;48.642;9.008;2022-08-18T17:28:05;27.20;46.30
29007;DHT22;16104;48.642;9.008;2022-08-18T17:33:09;27.10;47.00
29007;DHT22;16104;48.642;9.008;2022-08-18T17:38:29;26.90;48.20
29007;DHT22;16104;48.642;9.008;2022-08-18T17:43:34;26.70;48.60
29007;DHT22;16104;48.642;9.008;2022-08-18T17:48:37;26.60;48.90
29007;DHT22;16104;48.642;9.008;2022-08-18T17:53:35;26.40;49.30
29007;DHT22;16104;48.642;9.008;2022-08-18T17:58:36;26.30;49.60
29007;DHT22;16104;48.642;9.008;2022-08-18T18:03:35;26.20;50.40
29007;DHT22;16104;48.642;9.008;2022-08-18T18:09:37;26.00;50.50
29007;DHT22;16104;48.642;9.008;2022-08-18T18:14:26;25.90;51.20
29007;DHT22;16104;48.642;9.008;2022-08-18T18:19:23;25.80;51.80
29007;DHT22;16104;48.642;9.008;2022-08-18T18:24:30;25.70;51.70
29007;DHT22;16104;48.642;9.008;2022-08-18T18:29:28;25.60;52.60
29007;DHT22;16104;48.642;9.008;2022-08-18T18:39:28;25.40;52.60
29007;DHT22;16104;48.642;9.008;2022-08-18T18:44:29;25.20;53.50
29007;DHT22;16104;48.642;9.008;2022-08-18T18:49:30;25.10;53.20
29007;DHT22;16104;48.642;9.008;2022-08-18T18:54:54;25.00;53.10
29007;DHT22;16104;48.642;9.008;2022-08-18T19:00:03;25.00;53.60
29007;DHT22;16104;48.642;9.008;2022-08-18T19:05:21;24.90;53.60
29007;DHT22;16104;48.642;9.008;2022-08-18T19:15:29;24.80;53.70
29007;DHT22;16104;48.642;9.008;2022-08-18T19:20:35;24.70;53.40
29007;DHT22;16104;48.642;9.008;2022-08-18T19:25:32;24.70;53.80
29007;DHT22;16104;48.642;9.008;2022-08-18T19:30:28;24.60;53.50
29007;DHT22;16104;48.642;9.008;2022-08-18T19:35:37;24.50;53.40
29007;DHT22;16104;48.642;9.008;2022-08-18T19:45:48;24.50;53.60
29007;DHT22;16104;48.642;9.008;2022-08-18T19:50:50;24.40;53.70
29007;DHT22;16104;48.642;9.008;2022-08-18T19:56:00;24.40;53.60
29007;DHT22;16104;48.642;9.008;2022-08-18T20:01:03;24.30;53.70
29007;DHT22;16104;48.642;9.008;2022-08-18T20:16:36;24.20;53.40
29007;DHT22;16104;48.642;9.008;2022-08-18T20:22:05;24.20;53.70
29007;DHT22;16104;48.642;9.008;2022-08-18T20:27:20;24.20;53.90
29007;DHT22;16104;48.642;9.008;2022-08-18T20:32:20;24.10;53.90
29007;DHT22;16104;48.642;9.008;2022-08-18T20:37:24;24.10;53.80
29007;DHT22;16104;48.642;9.008;2022-08-18T20:52:40;24.10;54.10
29007;DHT22;16104;48.642;9.008;2022-08-18T20:57:40;24.00;54.10
29007;DHT22;16104;48.642;9.008;2022-08-18T21:02:38;24.00;53.90
29007;DHT22;16104;48.642;9.008;2022-08-18T21:07:55;24.00;54.10
29007;DHT22;16104;48.642;9.008;2022-08-18T21:12:53;23.90;54.20
29007;DHT22;16104;48.642;9.008;2022-08-18T21:18:01;23.90;54.20
29007;DHT22;16104;48.642;9.008;2022-08-18T21:23:06;23.80;54.50
29007;DHT22;16104;48.642;9.008;2022-08-18T21:28:04;23.90;54.50
29007;DHT22;16104;48.642;9.008;2022-08-18T21:33:16;23.80;54.50
29007;DHT22;16104;48.642;9.008;2022-08-18T21:38:14;23.80;54.50
29007;DHT22;16104;48.642;9.008;2022-08-18T21:43:34;23.80;54.30
29007;DHT22;16104;48.642;9.008;2022-08-18T21:48:31;23.80;54.50
29007;DHT22;16104;48.642;9.008;2022-08-18T21:53:30;23.70;54.30
29007;DHT22;16104;48.642;9.008;2022-08-18T22:03:28;23.80;54.20
29007;DHT22;16104;48.642;9.008;2022-08-18T22:08:25;23.80;54.20
29007;DHT22;16104;48.642;9.008;2022-08-18T22:13:26;23.80;54.40
29007;DHT22;16104;48.642;9.008;2022-08-18T22:18:41;23.70;54.40
29007;DHT22;16104;48.642;9.008;2022-08-18T22:23:44;23.70;54.30
29007;DHT22;16104;48.642;9.008;2022-08-18T22:33:55;23.70;54.40
29007;DHT22;16104;48.642;9.008;2022-08-18T22:38:51;23.60;54.30
29007;DHT22;16104;48.642;9.008;2022-08-18T22:43:47;23.60;54.40
29007;DHT22;16104;48.642;9.008;2022-08-18T22:48:43;23.60;54.50
29007;DHT22;16104;48.642;9.008;2022-08-18T22:53:40;23.50;54.50
29007;DHT22;16104;48.642;9.008;2022-08-18T22:58:36;23.50;54.60
29007;DHT22;16104;48.642;9.008;2022-08-18T23:03:32;23.50;54.60
29007;DHT22;16104;48.642;9.008;2022-08-18T23:08:27;23.50;54.70
29007;DHT22;16104;48.642;9.008;2022-08-18T23:13:24;23.50;54.80
29007;DHT22;16104;48.642;9.008;2022-08-18T23:18:21;23.50;54.70
29007;DHT22;16104;48.642;9.008;2022-08-18T23:23:20;23.40;54.80
29007;DHT22;16104;48.642;9.008;2022-08-18T23:28:18;23.40;55.00
29007;DHT22;16104;48.642;9.008;2022-08-18T23:33:15;23.40;55.00
29007;DHT22;16104;48.642;9.008;2022-08-18T23:38:11;23.40;55.00
29007;DHT22;16104;48.642;9.008;2022-08-18T23:43:10;23.30;54.90
29007;DHT22;16104;48.642;9.008;2022-08-18T23:48:07;23.30;54.90
29007;DHT22;16104;48.642;9.008;2022-08-18T23:53:04;23.30;55.00
29007;DHT22;16104;48.642;9.008;2022-08-18T23:57:59;23.30;55.00
